sensor_id;sensor_type;location;lat;lon;timestamp;pressure;altitude;pressure_sealevel;temperature;humidity
74230;BME280;62589;12.568;99.958;2023-03-01T00:01:04;101246.03;;;31.55;35.72
74230;BME280;62589;12.568;99.958;2023-03-01T00:03:31;101254.03;;;31.60;35.53
74230;BME280;62589;12.568;99.958;2023-03-01T00:05:58;101255.66;;;31.61;35.61
74230;BME280;62589;12.568;99.958;2023-03-01T00:08:26;101264.78;;;31.62;35.79
74230;BME280;62589;12.568;99.958;2023-03-01T00:14:00;101265.41;;;31.71;36.47
74230;BME280;62589;12.568;99.958;2023-03-01T00:16:38;101271.03;;;31.74;35.76
74230;BME280;62589;12.568;99.958;2023-03-01T00:19:06;101269.47;;;31.77;35.52
74230;BME280;62589;12.568;99.958;2023-03-01T00:21:33;101279.06;;;31.80;35.71
74230;BME280;62589;12.568;99.958;2023-03-01T00:24:01;101283.41;;;31.81;35.60
74230;BME280;62589;12.568;99.958;2023-03-01T00:26:28;101284.66;;;31.83;35.64
74230;BME280;62589;12.568;99.958;2023-03-01T00:28:56;101289.41;;;31.83;35.88
74230;BME280;62589;12.568;99.958;2023-03-01T00:31:26;101294.59;;;31.84;35.80
74230;BME280;62589;12.568;99.958;2023-03-01T00:33:59;101286.25;;;31.84;35.84
74230;BME280;62589;12.568;99.958;2023-03-01T00:36:28;101297.78;;;31.86;35.83
74230;BME280;62589;12.568;99.958;2023-03-01T00:38:55;101296.25;;;31.89;36.01
74230;BME280;62589;12.568;99.958;2023-03-01T00:41:23;101295.53;;;31.92;36.00
74230;BME280;62589;12.568;99.958;2023-03-01T00:43:53;101301.59;;;31.97;36.21
74230;BME280;62589;12.568;99.958;2023-03-01T00:46:22;101309.22;;;32.04;35.88
74230;BME280;62589;12.568;99.958;2023-03-01T00:48:48;101302.63;;;32.12;35.98
74230;BME280;62589;12.568;99.958;2023-03-01T00:51:26;101315.84;;;32.19;36.04
74230;BME280;62589;12.568;99.958;2023-03-01T00:53:59;101321.91;;;32.24;36.28
74230;BME280;62589;12.568;99.958;2023-03-01T00:56:27;101330.06;;;32.36;36.46
74230;BME280;62589;12.568;99.958;2023-03-01T00:58:53;101326.22;;;32.44;36.08
74230;BME280;62589;12.568;99.958;2023-03-01T01:01:24;101316.03;;;32.52;36.30
74230;BME280;62589;12.568;99.958;2023-03-01T01:04:12;101317.84;;;32.67;36.17
74230;BME280;62589;12.568;99.958;2023-03-01T01:06:46;101320.69;;;32.71;35.94
74230;BME280;62589;12.568;99.958;2023-03-01T01:09:15;101319.66;;;32.79;35.51
74230;BME280;62589;12.568;99.958;2023-03-01T01:11:48;101328.50;;;32.88;35.23
74230;BME280;62589;12.568;99.958;2023-03-01T01:14:16;101335.00;;;32.96;35.29
74230;BME280;62589;12.568;99.958;2023-03-01T01:16:43;101336.72;;;33.04;35.40
74230;BME280;62589;12.568;99.958;2023-03-01T01:19:11;101349.91;;;33.10;35.11
74230;BME280;62589;12.568;99.958;2023-03-01T01:21:39;101344.06;;;33.19;35.01
74230;BME280;62589;12.568;99.958;2023-03-01T01:24:06;101355.28;;;33.26;34.64
74230;BME280;62589;12.568;99.958;2023-03-01T01:26:34;101357.75;;;33.31;34.55
74230;BME280;62589;12.568;99.958;2023-03-01T01:29:03;101362.25;;;33.39;34.38
74230;BME280;62589;12.568;99.958;2023-03-01T01:31:30;101358.75;;;33.46;35.08
74230;BME280;62589;12.568;99.958;2023-03-01T01:34:00;101367.19;;;33.53;34.58
74230;BME280;62589;12.568;99.958;2023-03-01T01:36:27;101378.09;;;33.65;34.33
74230;BME280;62589;12.568;99.958;2023-03-01T01:38:54;101376.53;;;33.71;33.89
74230;BME280;62589;12.568;99.958;2023-03-01T01:41:21;101376.72;;;33.82;34.05
74230;BME280;62589;12.568;99.958;2023-03-01T01:44:09;101379.16;;;33.87;34.09
74230;BME280;62589;12.568;99.958;2023-03-01T01:46:45;101385.63;;;33.98;33.12
74230;BME280;62589;12.568;99.958;2023-03-01T01:49:22;101391.31;;;34.09;32.75
74230;BME280;62589;12.568;99.958;2023-03-01T01:51:54;101388.59;;;34.16;32.74
74230;BME280;62589;12.568;99.958;2023-03-01T01:54:44;101396.75;;;34.28;31.48
74230;BME280;62589;12.568;99.958;2023-03-01T01:57:16;101400.34;;;34.32;30.82
74230;BME280;62589;12.568;99.958;2023-03-01T01:59:49;101399.59;;;34.39;29.70
74230;BME280;62589;12.568;99.958;2023-03-01T02:02:17;101403.66;;;34.45;29.45
74230;BME280;62589;12.568;99.958;2023-03-01T02:04:44;101402.56;;;34.57;29.26
74230;BME280;62589;12.568;99.958;2023-03-01T02:07:24;101405.06;;;34.69;29.50
74230;BME280;62589;12.568;99.958;2023-03-01T02:09:52;101405.91;;;34.76;29.41
74230;BME280;62589;12.568;99.958;2023-03-01T02:12:21;101412.78;;;34.86;28.55
74230;BME280;62589;12.568;99.958;2023-03-01T02:14:49;101408.06;;;34.97;29.27
74230;BME280;62589;12.568;99.958;2023-03-01T02:17:17;101413.75;;;35.08;28.84
74230;BME280;62589;12.568;99.958;2023-03-01T02:19:59;101419.38;;;35.19;29.39
74230;BME280;62589;12.568;99.958;2023-03-01T02:22:34;101423.03;;;35.26;28.65
74230;BME280;62589;12.568;99.958;2023-03-01T02:28:25;101430.75;;;35.51;28.63
74230;BME280;62589;12.568;99.958;2023-03-01T02:30:53;101429.56;;;35.55;28.88
74230;BME280;62589;12.568;99.958;2023-03-01T02:33:33;101426.03;;;35.65;28.85
74230;BME280;62589;12.568;99.958;2023-03-01T02:36:15;101418.50;;;35.76;28.94
74230;BME280;62589;12.568;99.958;2023-03-01T02:38:43;101432.91;;;35.82;28.87
74230;BME280;62589;12.568;99.958;2023-03-01T02:41:13;101428.94;;;35.87;28.80
74230;BME280;62589;12.568;99.958;2023-03-01T02:43:41;101424.16;;;35.98;28.26
74230;BME280;62589;12.568;99.958;2023-03-01T02:46:17;101425.00;;;36.02;28.24
74230;BME280;62589;12.568;99.958;2023-03-01T02:48:54;101436.19;;;36.09;27.88
74230;BME280;62589;12.568;99.958;2023-03-01T02:51:42;101430.22;;;36.21;28.13
74230;BME280;62589;12.568;99.958;2023-03-01T02:57:04;101427.06;;;36.26;28.08
74230;BME280;62589;12.568;99.958;2023-03-01T02:59:33;101434.28;;;36.34;28.46
74230;BME280;62589;12.568;99.958;2023-03-01T03:02:06;101431.88;;;36.43;28.18
74230;BME280;62589;12.568;99.958;2023-03-01T03:04:33;101430.69;;;36.48;28.37
74230;BME280;62589;12.568;99.958;2023-03-01T03:06:59;101429.50;;;36.53;28.26
74230;BME280;62589;12.568;99.958;2023-03-01T03:09:26;101435.09;;;36.60;28.55
74230;BME280;62589;12.568;99.958;2023-03-01T03:11:52;101439.50;;;36.68;28.27
74230;BME280;62589;12.568;99.958;2023-03-01T03:14:19;101441.09;;;36.69;28.06
74230;BME280;62589;12.568;99.958;2023-03-01T03:16:48;101435.94;;;36.74;28.41
74230;BME280;62589;12.568;99.958;2023-03-01T03:19:16;101437.91;;;36.81;28.28
74230;BME280;62589;12.568;99.958;2023-03-01T03:21:43;101439.13;;;36.87;28.10
74230;BME280;62589;12.568;99.958;2023-03-01T03:24:10;101434.72;;;36.93;27.92
74230;BME280;62589;12.568;99.958;2023-03-01T03:26:36;101429.53;;;36.99;28.16
74230;BME280;62589;12.568;99.958;2023-03-01T03:29:03;101431.88;;;37.04;28.15
74230;BME280;62589;12.568;99.958;2023-03-01T03:31:29;101427.88;;;37.08;28.37
74230;BME280;62589;12.568;99.958;2023-03-01T03:47:12;101419.06;;;37.35;28.18
74230;BME280;62589;12.568;99.958;2023-03-01T03:49:39;101421.81;;;37.42;28.36
74230;BME280;62589;12.568;99.958;2023-03-01T03:52:05;101423.81;;;37.48;27.75
74230;BME280;62589;12.568;99.958;2023-03-01T03:54:40;101419.75;;;37.71;28.33
74230;BME280;62589;12.568;99.958;2023-03-01T03:57:07;101416.97;;;37.60;28.68
74230;BME280;62589;12.568;99.958;2023-03-01T03:59:33;101414.16;;;37.67;28.50
74230;BME280;62589;12.568;99.958;2023-03-01T04:02:00;101411.34;;;37.71;28.48
74230;BME280;62589;12.568;99.958;2023-03-01T04:04:26;101410.91;;;37.76;28.90
74230;BME280;62589;12.568;99.958;2023-03-01T04:06:52;101413.72;;;37.79;27.88
74230;BME280;62589;12.568;99.958;2023-03-01T04:09:19;101397.66;;;37.83;28.26
74230;BME280;62589;12.568;99.958;2023-03-01T04:11:45;101401.22;;;37.88;28.14
74230;BME280;62589;12.568;99.958;2023-03-01T04:14:12;101392.44;;;37.86;28.12
74230;BME280;62589;12.568;99.958;2023-03-01T04:16:38;101397.63;;;37.91;28.58
74230;BME280;62589;12.568;99.958;2023-03-01T04:19:05;101385.19;;;37.92;27.76
74230;BME280;62589;12.568;99.958;2023-03-01T04:21:32;101378.78;;;37.91;28.14
74230;BME280;62589;12.568;99.958;2023-03-01T04:23:58;101371.16;;;37.95;28.20
74230;BME280;62589;12.568;99.958;2023-03-01T04:26:25;101378.38;;;37.96;28.56
74230;BME280;62589;12.568;99.958;2023-03-01T04:28:52;101378.34;;;38.00;28.98
74230;BME280;62589;12.568;99.958;2023-03-01T04:31:19;101380.34;;;38.03;29.43
74230;BME280;62589;12.568;99.958;2023-03-01T04:33:54;101369.50;;;38.05;29.77
74230;BME280;62589;12.568;99.958;2023-03-01T04:36:26;101370.66;;;38.07;29.66
74230;BME280;62589;12.568;99.958;2023-03-01T04:38:54;101358.66;;;38.10;29.39
74230;BME280;62589;12.568;99.958;2023-03-01T04:41:22;101354.25;;;38.13;29.09
74230;BME280;62589;12.568;99.958;2023-03-01T04:43:49;101349.03;;;38.15;29.00
74230;BME280;62589;12.568;99.958;2023-03-01T04:46:18;101343.03;;;38.13;29.30
74230;BME280;62589;12.568;99.958;2023-03-01T04:48:46;101330.19;;;38.15;28.90
74230;BME280;62589;12.568;99.958;2023-03-01T04:51:13;101329.78;;;38.17;29.66
74230;BME280;62589;12.568;99.958;2023-03-01T04:53:40;101328.19;;;38.16;29.18
74230;BME280;62589;12.568;99.958;2023-03-01T04:56:07;101312.16;;;38.16;29.86
74230;BME280;62589;12.568;99.958;2023-03-01T04:58:34;101316.97;;;38.16;30.25
74230;BME280;62589;12.568;99.958;2023-03-01T05:01:01;101308.94;;;38.18;30.04
74230;BME280;62589;12.568;99.958;2023-03-01T05:03:27;101300.13;;;38.20;29.95
74230;BME280;62589;12.568;99.958;2023-03-01T05:05:54;101294.91;;;38.22;30.45
74230;BME280;62589;12.568;99.958;2023-03-01T05:08:25;101297.66;;;38.25;29.90
74230;BME280;62589;12.568;99.958;2023-03-01T05:10:53;101293.63;;;38.26;29.54
74230;BME280;62589;12.568;99.958;2023-03-01T05:13:21;101289.63;;;38.27;30.03
74230;BME280;62589;12.568;99.958;2023-03-01T05:18:31;101286.38;;;38.32;29.29
74230;BME280;62589;12.568;99.958;2023-03-01T05:21:10;101273.97;;;38.30;28.90
74230;BME280;62589;12.568;99.958;2023-03-01T05:23:37;101279.56;;;38.33;29.40
74230;BME280;62589;12.568;99.958;2023-03-01T05:26:05;101266.34;;;38.34;29.51
74230;BME280;62589;12.568;99.958;2023-03-01T05:28:32;101261.50;;;38.38;29.45
74230;BME280;62589;12.568;99.958;2023-03-01T05:30:59;101267.13;;;38.34;29.30
74230;BME280;62589;12.568;99.958;2023-03-01T05:33:26;101257.88;;;38.37;29.33
74230;BME280;62589;12.568;99.958;2023-03-01T05:35:53;101250.28;;;38.38;29.34
74230;BME280;62589;12.568;99.958;2023-03-01T05:38:20;101246.28;;;38.35;29.04
74230;BME280;62589;12.568;99.958;2023-03-01T05:40:49;101251.91;;;38.35;29.95
74230;BME280;62589;12.568;99.958;2023-03-01T05:43:16;101235.44;;;38.37;30.19
74230;BME280;62589;12.568;99.958;2023-03-01T05:45:44;101240.22;;;38.40;30.69
74230;BME280;62589;12.568;99.958;2023-03-01T05:48:12;101234.22;;;38.42;30.62
74230;BME280;62589;12.568;99.958;2023-03-01T05:50:41;101226.22;;;38.40;29.98
74230;BME280;62589;12.568;99.958;2023-03-01T05:53:18;101229.00;;;38.40;30.36
74230;BME280;62589;12.568;99.958;2023-03-01T05:55:47;101217.03;;;38.36;30.51
74230;BME280;62589;12.568;99.958;2023-03-01T05:58:17;101223.44;;;38.37;30.58
74230;BME280;62589;12.568;99.958;2023-03-01T06:00:45;101215.06;;;38.33;31.46
74230;BME280;62589;12.568;99.958;2023-03-01T06:03:13;101215.03;;;38.37;32.12
74230;BME280;62589;12.568;99.958;2023-03-01T06:05:41;101209.44;;;38.33;31.66
74230;BME280;62589;12.568;99.958;2023-03-01T06:08:09;101208.66;;;38.33;32.53
74230;BME280;62589;12.568;99.958;2023-03-01T06:10:36;101202.66;;;38.31;32.74
74230;BME280;62589;12.568;99.958;2023-03-01T06:13:03;101200.69;;;38.28;32.90
74230;BME280;62589;12.568;99.958;2023-03-01T06:15:30;101203.06;;;38.29;33.22
74230;BME280;62589;12.568;99.958;2023-03-01T06:17:56;101192.69;;;38.26;33.64
74230;BME280;62589;12.568;99.958;2023-03-01T06:20:25;101188.28;;;38.25;34.23
74230;BME280;62589;12.568;99.958;2023-03-01T06:22:51;101191.06;;;38.29;34.29
74230;BME280;62589;12.568;99.958;2023-03-01T06:25:20;101180.25;;;38.27;33.52
74230;BME280;62589;12.568;99.958;2023-03-01T06:27:48;101177.44;;;38.27;33.46
74230;BME280;62589;12.568;99.958;2023-03-01T06:30:16;101180.25;;;38.27;33.66
74230;BME280;62589;12.568;99.958;2023-03-01T06:32:44;101167.03;;;38.28;33.35
74230;BME280;62589;12.568;99.958;2023-03-01T06:35:15;101161.47;;;38.24;33.43
74230;BME280;62589;12.568;99.958;2023-03-01T06:37:44;101156.28;;;38.23;32.55
74230;BME280;62589;12.568;99.958;2023-03-01T06:40:12;101151.09;;;38.21;32.37
74230;BME280;62589;12.568;99.958;2023-03-01T06:42:43;101151.81;;;38.25;32.56
74230;BME280;62589;12.568;99.958;2023-03-01T06:45:10;101148.22;;;38.25;32.80
74230;BME280;62589;12.568;99.958;2023-03-01T06:47:37;101131.47;;;38.21;32.70
74230;BME280;62589;12.568;99.958;2023-03-01T06:50:04;101127.81;;;38.24;32.53
74230;BME280;62589;12.568;99.958;2023-03-01T06:52:31;101134.28;;;38.21;33.21
74230;BME280;62589;12.568;99.958;2023-03-01T06:54:57;101127.03;;;38.24;32.59
74230;BME280;62589;12.568;99.958;2023-03-01T06:57:24;101120.56;;;38.27;32.61
74230;BME280;62589;12.568;99.958;2023-03-01T06:59:51;101121.84;;;38.22;32.75
74230;BME280;62589;12.568;99.958;2023-03-01T07:02:17;101110.63;;;38.22;32.61
74230;BME280;62589;12.568;99.958;2023-03-01T07:04:44;101110.63;;;38.22;32.04
74230;BME280;62589;12.568;99.958;2023-03-01T07:07:11;101105.44;;;38.21;32.40
74230;BME280;62589;12.568;99.958;2023-03-01T07:09:38;101107.47;;;38.16;32.68
74230;BME280;62589;12.568;99.958;2023-03-01T07:12:04;101107.09;;;38.14;32.61
74230;BME280;62589;12.568;99.958;2023-03-01T07:14:31;101097.09;;;38.13;31.98
74230;BME280;62589;12.568;99.958;2023-03-01T07:16:57;101099.91;;;38.13;32.27
74230;BME280;62589;12.568;99.958;2023-03-01T07:19:24;101100.31;;;38.12;32.06
74230;BME280;62589;12.568;99.958;2023-03-01T07:21:50;101093.50;;;38.13;31.57
74230;BME280;62589;12.568;99.958;2023-03-01T07:24:17;101086.72;;;38.10;32.03
74230;BME280;62589;12.568;99.958;2023-03-01T07:26:43;101087.50;;;38.11;32.01
74230;BME280;62589;12.568;99.958;2023-03-01T07:29:10;101084.69;;;38.11;32.09
74230;BME280;62589;12.568;99.958;2023-03-01T07:31:37;101075.06;;;38.12;32.57
74230;BME280;62589;12.568;99.958;2023-03-01T07:34:03;101072.66;;;38.14;32.31
74230;BME280;62589;12.568;99.958;2023-03-01T07:36:30;101069.88;;;38.10;31.94
74230;BME280;62589;12.568;99.958;2023-03-01T07:38:56;101070.28;;;38.09;31.33
74230;BME280;62589;12.568;99.958;2023-03-01T07:41:23;101065.50;;;38.06;31.52
74230;BME280;62589;12.568;99.958;2023-03-01T07:43:50;101065.50;;;38.06;30.65
74230;BME280;62589;12.568;99.958;2023-03-01T07:46:16;101046.25;;;38.08;31.20
74230;BME280;62589;12.568;99.958;2023-03-01T07:48:44;101044.66;;;38.07;32.14
74230;BME280;62589;12.568;99.958;2023-03-01T07:51:11;101044.25;;;38.08;31.42
74230;BME280;62589;12.568;99.958;2023-03-01T07:53:37;101038.63;;;38.08;31.62
74230;BME280;62589;12.568;99.958;2023-03-01T07:58:41;101038.25;;;38.06;31.21
74230;BME280;62589;12.568;99.958;2023-03-01T08:01:14;101032.28;;;38.04;31.13
74230;BME280;62589;12.568;99.958;2023-03-01T08:03:41;101029.44;;;38.08;31.63
74230;BME280;62589;12.568;99.958;2023-03-01T08:06:09;101017.47;;;38.04;31.73
74230;BME280;62589;12.568;99.958;2023-03-01T08:08:36;101020.25;;;38.04;30.86
74230;BME280;62589;12.568;99.958;2023-03-01T08:11:05;101023.56;;;37.99;30.93
74230;BME280;62589;12.568;99.958;2023-03-01T08:13:32;101019.16;;;37.98;30.62
74230;BME280;62589;12.568;99.958;2023-03-01T08:16:03;101017.56;;;37.97;30.64
74230;BME280;62589;12.568;99.958;2023-03-01T08:18:30;101009.53;;;37.99;30.71
74230;BME280;62589;12.568;99.958;2023-03-01T08:21:02;101014.38;;;37.95;30.61
74230;BME280;62589;12.568;99.958;2023-03-01T08:23:28;101012.38;;;37.95;30.21
74230;BME280;62589;12.568;99.958;2023-03-01T08:28:50;101009.19;;;37.93;30.08
74230;BME280;62589;12.568;99.958;2023-03-01T08:31:25;101007.19;;;37.94;29.87
74230;BME280;62589;12.568;99.958;2023-03-01T08:33:54;101004.84;;;37.89;29.76
74230;BME280;62589;12.568;99.958;2023-03-01T08:36:27;100995.22;;;37.90;30.18
74230;BME280;62589;12.568;99.958;2023-03-01T08:38:54;100996.63;;;38.05;29.99
74230;BME280;62589;12.568;99.958;2023-03-01T08:41:21;101000.00;;;37.93;30.03
74230;BME280;62589;12.568;99.958;2023-03-01T08:43:48;101002.41;;;37.91;30.09
74230;BME280;62589;12.568;99.958;2023-03-01T08:46:14;100984.00;;;37.90;29.73
74230;BME280;62589;12.568;99.958;2023-03-01T08:48:41;100992.44;;;37.86;29.82
74230;BME280;62589;12.568;99.958;2023-03-01T08:51:14;100989.66;;;37.86;29.94
74230;BME280;62589;12.568;99.958;2023-03-01T08:53:41;100988.81;;;37.89;30.08
74230;BME280;62589;12.568;99.958;2023-03-01T08:56:09;100992.03;;;37.88;30.24
74230;BME280;62589;12.568;99.958;2023-03-01T08:58:36;100988.03;;;37.89;30.13
74230;BME280;62589;12.568;99.958;2023-03-01T09:01:14;100984.00;;;37.90;30.61
74230;BME280;62589;12.568;99.958;2023-03-01T09:03:41;100979.63;;;37.89;29.82
74230;BME280;62589;12.568;99.958;2023-03-01T09:06:08;100980.81;;;37.88;29.92
74230;BME280;62589;12.568;99.958;2023-03-01T09:08:38;100974.44;;;37.87;29.59
74230;BME280;62589;12.568;99.958;2023-03-01T09:11:07;100975.25;;;37.84;29.31
74230;BME280;62589;12.568;99.958;2023-03-01T09:13:34;100975.25;;;37.84;29.36
74230;BME280;62589;12.568;99.958;2023-03-01T09:16:05;100969.66;;;37.84;28.95
74230;BME280;62589;12.568;99.958;2023-03-01T09:18:32;100968.84;;;37.83;29.10
74230;BME280;62589;12.568;99.958;2023-03-01T09:21:08;100971.66;;;37.83;29.11
74230;BME280;62589;12.568;99.958;2023-03-01T09:23:36;100966.06;;;37.83;29.43
74230;BME280;62589;12.568;99.958;2023-03-01T09:26:06;100964.91;;;37.81;29.84
74230;BME280;62589;12.568;99.958;2023-03-01T09:28:34;100964.94;;;37.77;29.44
74230;BME280;62589;12.568;99.958;2023-03-01T09:31:01;100965.38;;;37.76;29.25
74230;BME280;62589;12.568;99.958;2023-03-01T09:33:29;100972.97;;;37.75;29.84
74230;BME280;62589;12.568;99.958;2023-03-01T09:35:58;100965.00;;;37.74;29.97
74230;BME280;62589;12.568;99.958;2023-03-01T09:38:25;100965.78;;;37.74;29.67
74230;BME280;62589;12.568;99.958;2023-03-01T09:40:53;100969.00;;;37.73;30.02
74230;BME280;62589;12.568;99.958;2023-03-01T09:43:50;100963.34;;;37.76;29.63
74230;BME280;62589;12.568;99.958;2023-03-01T09:46:22;100966.63;;;37.71;29.83
74230;BME280;62589;12.568;99.958;2023-03-01T09:48:57;100965.03;;;37.70;29.93
74230;BME280;62589;12.568;99.958;2023-03-01T09:51:30;100966.28;;;37.66;29.89
74230;BME280;62589;12.568;99.958;2023-03-01T09:53:57;100964.25;;;37.66;29.61
74230;BME280;62589;12.568;99.958;2023-03-01T09:56:37;100963.47;;;37.66;29.69
74230;BME280;62589;12.568;99.958;2023-03-01T10:08:10;100970.66;;;37.63;29.39
74230;BME280;62589;12.568;99.958;2023-03-01T10:10:44;100970.34;;;37.58;29.65
74230;BME280;62589;12.568;99.958;2023-03-01T10:16:33;100973.97;;;37.55;29.62
74230;BME280;62589;12.568;99.958;2023-03-01T10:19:05;100976.81;;;37.51;29.35
74230;BME280;62589;12.568;99.958;2023-03-01T10:21:36;100979.22;;;37.49;29.52
74230;BME280;62589;12.568;99.958;2023-03-01T10:24:14;100978.44;;;37.48;29.41
74230;BME280;62589;12.568;99.958;2023-03-01T10:26:58;100982.03;;;37.49;29.24
74230;BME280;62589;12.568;99.958;2023-03-01T10:32:37;100984.56;;;37.40;29.25
74230;BME280;62589;12.568;99.958;2023-03-01T10:35:19;100974.56;;;37.39;29.44
74230;BME280;62589;12.568;99.958;2023-03-01T10:38:05;100985.38;;;37.37;29.81
74230;BME280;62589;12.568;99.958;2023-03-01T10:40:33;100983.81;;;37.32;29.45
74230;BME280;62589;12.568;99.958;2023-03-01T10:43:05;100985.06;;;37.28;29.61
74230;BME280;62589;12.568;99.958;2023-03-01T10:45:36;100989.47;;;37.25;29.17
74230;BME280;62589;12.568;99.958;2023-03-01T10:48:25;100987.84;;;37.28;29.12
74230;BME280;62589;12.568;99.958;2023-03-01T10:51:17;100991.06;;;37.26;29.43
74230;BME280;62589;12.568;99.958;2023-03-01T10:53:49;100993.16;;;37.19;29.03
74230;BME280;62589;12.568;99.958;2023-03-01T10:56:17;100985.94;;;37.17;29.51
74230;BME280;62589;12.568;99.958;2023-03-01T10:59:05;100989.53;;;37.18;29.55
74230;BME280;62589;12.568;99.958;2023-03-01T11:01:35;100989.16;;;37.12;29.26
74230;BME280;62589;12.568;99.958;2023-03-01T11:04:20;100992.72;;;37.16;29.51
74230;BME280;62589;12.568;99.958;2023-03-01T11:06:58;100989.56;;;37.11;29.61
74230;BME280;62589;12.568;99.958;2023-03-01T11:09:25;100994.00;;;37.08;29.32
74230;BME280;62589;12.568;99.958;2023-03-01T11:12:00;101002.00;;;37.06;29.46
74230;BME280;62589;12.568;99.958;2023-03-01T11:14:38;101001.22;;;37.06;29.83
74230;BME280;62589;12.568;99.958;2023-03-01T11:17:17;100998.44;;;37.02;29.71
74230;BME280;62589;12.568;99.958;2023-03-01T11:22:37;101000.84;;;37.00;29.97
74230;BME280;62589;12.568;99.958;2023-03-01T11:25:10;101006.91;;;36.95;29.81
74230;BME280;62589;12.568;99.958;2023-03-01T11:27:43;101008.13;;;36.94;29.55
74230;BME280;62589;12.568;99.958;2023-03-01T11:30:44;101010.13;;;36.94;29.72
74230;BME280;62589;12.568;99.958;2023-03-01T11:33:18;101018.94;;;36.89;29.75
74230;BME280;62589;12.568;99.958;2023-03-01T11:36:23;101023.34;;;36.86;29.44
74230;BME280;62589;12.568;99.958;2023-03-01T11:38:50;101028.22;;;36.78;29.90
74230;BME280;62589;12.568;99.958;2023-03-01T11:41:20;101023.47;;;36.72;29.99
74230;BME280;62589;12.568;99.958;2023-03-01T11:43:57;101035.03;;;36.70;30.19
74230;BME280;62589;12.568;99.958;2023-03-01T11:49:38;101041.03;;;36.65;30.14
74230;BME280;62589;12.568;99.958;2023-03-01T11:52:32;101052.25;;;36.62;30.08
74230;BME280;62589;12.568;99.958;2023-03-01T12:01:16;101058.28;;;36.57;30.66
74230;BME280;62589;12.568;99.958;2023-03-01T12:07:05;101074.69;;;36.55;30.76
74230;BME280;62589;12.568;99.958;2023-03-01T12:09:51;101071.50;;;36.53;30.80
74230;BME280;62589;12.568;99.958;2023-03-01T12:12:47;101075.88;;;36.54;30.57
74230;BME280;62589;12.568;99.958;2023-03-01T12:15:47;101085.47;;;36.53;30.44
74230;BME280;62589;12.568;99.958;2023-03-01T12:27:37;101085.13;;;36.40;30.65
74230;BME280;62589;12.568;99.958;2023-03-01T12:30:35;101085.53;;;36.38;30.95
74230;BME280;62589;12.568;99.958;2023-03-01T12:36:39;101097.94;;;36.34;30.99
74230;BME280;62589;12.568;99.958;2023-03-01T12:42:32;101103.53;;;36.30;31.10
74230;BME280;62589;12.568;99.958;2023-03-01T12:45:29;101110.72;;;36.31;31.49
74230;BME280;62589;12.568;99.958;2023-03-01T12:50:48;101115.13;;;36.25;31.89
74230;BME280;62589;12.568;99.958;2023-03-01T12:53:26;101113.91;;;36.23;31.88
74230;BME280;62589;12.568;99.958;2023-03-01T12:55:56;101115.50;;;36.20;31.76
74230;BME280;62589;12.568;99.958;2023-03-01T12:58:35;101123.50;;;36.18;31.85
74230;BME280;62589;12.568;99.958;2023-03-01T13:01:32;101125.50;;;36.21;31.43
74230;BME280;62589;12.568;99.958;2023-03-01T13:04:27;101123.91;;;36.20;31.45
74230;BME280;62589;12.568;99.958;2023-03-01T13:10:23;101125.53;;;36.14;31.44
74230;BME280;62589;12.568;99.958;2023-03-01T13:13:08;101130.31;;;36.10;31.76
74230;BME280;62589;12.568;99.958;2023-03-01T13:15:38;101137.91;;;36.06;31.58
74230;BME280;62589;12.568;99.958;2023-03-01T13:18:28;101142.72;;;36.05;31.77
74230;BME280;62589;12.568;99.958;2023-03-01T13:20:59;101148.31;;;35.98;31.74
74230;BME280;62589;12.568;99.958;2023-03-01T13:23:33;101150.69;;;35.96;31.41
74230;BME280;62589;12.568;99.958;2023-03-01T13:26:06;101148.72;;;35.93;31.56
74230;BME280;62589;12.568;99.958;2023-03-01T13:28:53;101144.34;;;35.92;31.51
74230;BME280;62589;12.568;99.958;2023-03-01T13:31:56;101161.09;;;35.92;31.42
74230;BME280;62589;12.568;99.958;2023-03-01T13:34:42;101169.88;;;35.87;31.63
74230;BME280;62589;12.568;99.958;2023-03-01T13:37:33;101168.28;;;35.86;31.49
74230;BME280;62589;12.568;99.958;2023-03-01T13:40:04;101170.66;;;35.77;31.40
74230;BME280;62589;12.568;99.958;2023-03-01T13:42:38;101177.41;;;35.76;31.60
74230;BME280;62589;12.568;99.958;2023-03-01T13:45:20;101176.63;;;35.75;31.87
74230;BME280;62589;12.568;99.958;2023-03-01T13:47:50;101180.25;;;35.72;31.79
74230;BME280;62589;12.568;99.958;2023-03-01T13:50:25;101179.03;;;35.66;31.57
74230;BME280;62589;12.568;99.958;2023-03-01T13:53:02;101176.63;;;35.65;31.95
74230;BME280;62589;12.568;99.958;2023-03-01T13:55:42;101189.81;;;35.64;32.03
74230;BME280;62589;12.568;99.958;2023-03-01T14:01:18;101195.78;;;35.59;32.39
74230;BME280;62589;12.568;99.958;2023-03-01T14:03:46;101207.75;;;35.56;32.10
74230;BME280;62589;12.568;99.958;2023-03-01T14:06:15;101204.16;;;35.52;32.46
74230;BME280;62589;12.568;99.958;2023-03-01T14:08:45;101216.13;;;35.49;32.49
74230;BME280;62589;12.568;99.958;2023-03-01T14:20:28;101222.09;;;35.44;32.24
74230;BME280;62589;12.568;99.958;2023-03-01T14:22:59;101226.47;;;35.38;32.57
74230;BME280;62589;12.568;99.958;2023-03-01T14:25:33;101227.25;;;35.35;32.78
74230;BME280;62589;12.568;99.958;2023-03-01T14:28:30;101231.25;;;35.37;32.74
74230;BME280;62589;12.568;99.958;2023-03-01T14:31:00;101231.22;;;35.34;32.93
74230;BME280;62589;12.568;99.958;2023-03-01T14:33:34;101234.84;;;35.31;32.94
74230;BME280;62589;12.568;99.958;2023-03-01T14:36:04;101239.22;;;35.32;32.41
74230;BME280;62589;12.568;99.958;2023-03-01T14:38:35;101244.41;;;35.30;32.81